Time;durP1;ratioP1;P1;durP2;ratioP2;P2;SDS_P1;SDS_P2;PMS_P1;PMS_P2;Temp;Humidity;BMP_temperature;BMP_pressure;BME280_temperature;BME280_humidity;BME280_pressure;Samples;Min_cycle;Max_cycle;Signal;HPM_P1;HPM_P2
2021/12/17 00:01:44;;;;;;;0.20;0.20;;;;;;;10.27;70.55;104125.03;5049942;28;20029;-82
2021/12/17 00:04:25;;;;;;;0.10;0.10;;;;;;;10.30;70.50;104121.56;5044746;28;20049;-82
2021/12/17 00:06:51;;;;;;;0.10;0.10;;;;;;;10.33;70.51;104125.22;5048793;28;20055;-83
2021/12/17 00:09:17;;;;;;;0.10;0.10;;;;;;;10.34;70.75;104120.81;5049616;28;20115;-81
2021/12/17 00:11:43;;;;;;;0.63;0.63;;;;;;;10.33;70.56;104119.94;5042931;28;20480;-81
2021/12/17 00:14:12;;;;;;;0.10;0.10;;;;;;;10.34;70.67;104131.41;5044480;28;20131;-83
2021/12/17 00:16:40;;;;;;;0.10;0.10;;;;;;;10.34;70.37;104132.34;5046815;28;20033;-81
2021/12/17 00:46:36;;;;;;;0.35;0.35;;;;;;;10.57;70.71;104134.88;5047285;28;20086;-83
2021/12/17 00:49:40;;;;;;;0.20;0.20;;;;;;;10.59;70.63;104135.84;5047852;28;20365;-82
2021/12/17 00:52:06;;;;;;;2.30;0.65;;;;;;;10.59;70.48;104132.28;5048601;28;20026;-82
2021/12/17 00:54:38;;;;;;;0.10;0.10;;;;;;;10.63;70.60;104129.78;5046352;28;20099;-82
2021/12/17 00:59:51;;;;;;;0.20;0.20;;;;;;;10.65;70.41;104124.53;5057529;28;20901;-82
2021/12/17 01:02:23;;;;;;;0.10;0.10;;;;;;;10.66;70.89;104121.91;5057714;28;20420;-83
2021/12/17 01:04:53;;;;;;;0.10;0.10;;;;;;;10.67;70.75;104122.84;5063773;28;20402;-83
2021/12/17 01:07:22;;;;;;;0.10;0.10;;;;;;;10.66;70.48;104132.53;5060940;28;20036;-82
2021/12/17 01:09:49;;;;;;;0.10;0.10;;;;;;;10.67;70.42;104125.47;5055510;28;20032;-82
2021/12/17 01:12:16;;;;;;;3.10;1.23;;;;;;;10.66;70.91;104116.59;5063932;28;20124;-82
2021/12/17 01:14:43;;;;;;;0.10;0.10;;;;;;;10.66;70.53;104113.97;5055319;28;20029;-82
2021/12/17 01:17:11;;;;;;;0.10;0.10;;;;;;;10.65;70.67;104112.19;5055164;28;20400;-81
2021/12/17 01:25:22;;;;;;;0.10;0.10;;;;;;;10.61;70.64;104114.69;5056995;28;20039;-83
2021/12/17 01:36:07;;;;;;;0.20;0.20;;;;;;;10.58;70.60;104125.16;5057118;28;20032;-83
2021/12/17 01:42:04;;;;;;;0.10;0.10;;;;;;;10.59;70.57;104121.66;5061636;28;20029;-81
2021/12/17 01:44:16;;;;;;;0.80;0.80;;;;;;;10.60;70.52;104119.06;5063746;28;20122;-81
2021/12/17 01:46:44;;;;;;;0.10;0.10;;;;;;;10.59;70.85;104117.28;5060832;28;20064;-82
2021/12/17 02:03:06;;;;;;;0.40;0.40;;;;;;;10.59;70.23;104122.59;5056635;27;20416;-82
2021/12/17 02:05:33;;;;;;;0.70;0.57;;;;;;;10.59;70.48;104116.38;5038057;28;20423;-82
2021/12/17 02:08:00;;;;;;;0.10;0.10;;;;;;;10.58;70.40;104120.78;5053059;28;20061;-82
2021/12/17 02:11:04;;;;;;;0.10;0.10;;;;;;;10.58;70.47;104118.13;5036938;28;20048;-82
2021/12/17 02:32:34;;;;;;;0.10;0.10;;;;;;;10.64;70.55;104122.72;5074604;28;20962;-82
2021/12/17 02:35:19;;;;;;;0.45;0.45;;;;;;;10.63;70.67;104118.25;5051049;28;20438;-82
2021/12/17 02:37:47;;;;;;;0.20;0.20;;;;;;;10.63;70.61;104111.22;5045730;28;20025;-82
2021/12/17 02:42:30;;;;;;;0.38;0.38;;;;;;;10.64;70.64;104123.63;5046848;28;20034;-82
2021/12/17 02:45:48;;;;;;;0.10;0.10;;;;;;;10.63;70.59;104119.19;5060862;28;20462;-82
2021/12/17 02:48:18;;;;;;;1.48;1.48;;;;;;;10.65;70.66;104125.44;5038300;28;20026;-82
2021/12/17 02:50:52;;;;;;;0.10;0.10;;;;;;;10.67;70.81;104125.47;5040358;28;20034;-82
2021/12/17 02:53:19;;;;;;;0.13;0.13;;;;;;;10.66;70.82;104128.97;5043075;28;20507;-83
2021/12/17 02:55:51;;;;;;;0.20;0.20;;;;;;;10.67;70.43;104115.75;5038036;28;20044;-81
2021/12/17 02:58:20;;;;;;;0.00;0.00;;;;;;;10.66;70.40;104113.97;5030981;28;20087;-82
2021/12/17 03:00:46;;;;;;;0.90;0.90;;;;;;;10.65;70.70;104098.94;5037205;28;20025;-82
2021/12/17 03:03:14;;;;;;;0.13;0.13;;;;;;;10.65;70.27;104112.19;5029618;28;20072;-82
2021/12/17 03:05:42;;;;;;;0.10;0.10;;;;;;;10.67;70.83;104117.53;5036646;28;20033;-82
2021/12/17 03:08:14;;;;;;;0.10;0.10;;;;;;;10.68;70.41;104111.38;5029810;28;20030;-83
2021/12/17 03:10:42;;;;;;;0.10;0.10;;;;;;;10.63;70.43;104119.19;5027932;28;20029;-83
2021/12/17 03:13:10;;;;;;;0.10;0.10;;;;;;;10.66;70.47;104119.25;5029032;28;20026;-82
2021/12/17 03:16:14;;;;;;;0.10;0.10;;;;;;;10.66;70.89;104113.97;5028988;28;20036;-82
2021/12/17 03:23:49;;;;;;;0.20;0.20;;;;;;;10.64;70.02;104110.38;5061206;28;20029;-81
2021/12/17 03:26:25;;;;;;;0.10;0.10;;;;;;;10.65;70.39;104108.63;5039020;28;20034;-83
2021/12/17 03:28:56;;;;;;;1.00;1.00;;;;;;;10.64;70.21;104112.09;5051780;28;20444;-82
2021/12/17 03:31:24;;;;;;;0.10;0.10;;;;;;;10.64;70.29;104105.06;5060070;28;20047;-83
2021/12/17 03:33:54;;;;;;;0.10;0.10;;;;;;;10.66;70.58;104107.75;5055939;28;20040;-83
2021/12/17 03:36:21;;;;;;;0.75;0.75;;;;;;;10.67;70.65;104110.47;5045416;28;20021;-83
2021/12/17 03:38:50;;;;;;;0.13;0.13;;;;;;;10.70;70.84;104114.97;5052099;28;20437;-82
2021/12/17 03:41:28;;;;;;;0.15;0.15;;;;;;;10.72;70.61;104118.56;5055464;28;20033;-83
2021/12/17 03:43:55;;;;;;;0.20;0.20;;;;;;;10.75;70.73;104112.47;5040817;28;20034;-83
2021/12/17 03:46:22;;;;;;;1.70;1.60;;;;;;;10.77;70.77;104116.06;5041232;28;20057;-83
2021/12/17 03:48:49;;;;;;;0.52;0.52;;;;;;;10.78;70.37;104113.47;5041833;28;20029;-83
2021/12/17 03:51:17;;;;;;;0.10;0.10;;;;;;;10.81;70.73;104115.31;5050706;28;20030;-83
2021/12/17 03:53:48;;;;;;;0.17;0.17;;;;;;;10.82;70.50;104112.69;5040836;28;20030;-83
2021/12/17 03:56:14;;;;;;;0.10;0.10;;;;;;;10.80;70.46;104110.84;5046665;28;20036;-83
2021/12/17 03:58:40;;;;;;;0.55;0.55;;;;;;;10.74;70.03;104110.66;5056336;28;20040;-83
2021/12/17 04:01:08;;;;;;;0.52;0.25;;;;;;;10.70;69.92;104114.97;5047830;28;20401;-83
2021/12/17 04:03:35;;;;;;;0.10;0.10;;;;;;;10.76;70.06;104116.91;5058776;28;20059;-83
2021/12/17 04:06:02;;;;;;;0.13;0.13;;;;;;;10.76;70.77;104116.91;5058849;28;20035;-82
2021/12/17 04:08:29;;;;;;;2.28;2.15;;;;;;;10.75;70.55;104117.78;5051699;28;20091;-83
2021/12/17 04:11:03;;;;;;;1.23;1.17;;;;;;;10.75;70.59;104112.47;5057254;28;20132;-83
2021/12/17 04:13:33;;;;;;;0.20;0.20;;;;;;;10.74;70.45;104113.31;5054160;28;20037;-83
2021/12/17 04:16:06;;;;;;;0.17;0.17;;;;;;;10.76;70.56;104114.28;5044096;28;20037;-83
2021/12/17 04:18:34;;;;;;;0.30;0.30;;;;;;;10.78;70.75;104112.53;5056098;28;20032;-81
2021/12/17 04:21:02;;;;;;;0.15;0.15;;;;;;;10.80;70.72;104117.06;5057794;28;20029;-83
2021/12/17 04:23:31;;;;;;;0.45;0.45;;;;;;;10.83;70.55;104118.94;5060568;28;20041;-82
2021/12/17 04:25:58;;;;;;;0.10;0.10;;;;;;;10.82;70.54;104114.47;5060378;28;20041;-83
2021/12/17 04:28:24;;;;;;;1.45;1.08;;;;;;;10.87;70.59;104117.28;5060348;28;20028;-83
2021/12/17 04:30:51;;;;;;;0.47;0.47;;;;;;;10.88;71.18;104113.75;5046343;28;20028;-83
2021/12/17 04:33:17;;;;;;;0.47;0.47;;;;;;;10.88;70.96;104112.00;5045087;28;20136;-83
2021/12/17 04:35:43;;;;;;;0.65;0.52;;;;;;;10.90;70.79;104120.91;5046330;28;20029;-83
2021/12/17 04:38:11;;;;;;;0.10;0.10;;;;;;;10.88;70.89;104125.28;5039279;28;20048;-84
2021/12/17 04:40:49;;;;;;;0.40;0.40;;;;;;;10.94;70.66;104122.81;5045725;28;20033;-82
2021/12/17 04:43:38;;;;;;;0.10;0.10;;;;;;;10.91;70.69;104117.41;5033340;28;20108;-82
2021/12/17 04:46:24;;;;;;;0.35;0.35;;;;;;;10.90;70.99;104117.34;5040950;28;20025;-82
2021/12/17 04:57:41;;;;;;;3.60;1.73;;;;;;;10.80;70.66;104122.38;5041450;28;20076;-83
2021/12/17 05:00:02;;;;;;;0.22;0.22;;;;;;;10.86;70.89;104124.31;5029691;28;20057;-83
2021/12/17 05:02:30;;;;;;;0.43;0.43;;;;;;;10.81;71.04;104121.50;5040984;28;20029;-83
2021/12/17 05:04:56;;;;;;;2.15;2.05;;;;;;;10.80;70.86;104124.13;5042138;28;20041;-82
2021/12/17 05:07:24;;;;;;;0.25;0.25;;;;;;;10.79;70.91;104115.28;5039777;28;20037;-83
2021/12/17 05:18:26;;;;;;;0.30;0.30;;;;;;;10.75;70.97;104117.78;5060468;28;20112;-81
2021/12/17 05:20:59;;;;;;;0.17;0.17;;;;;;;10.78;70.94;104108.16;5054793;28;20124;-82
2021/12/17 05:23:32;;;;;;;0.30;0.30;;;;;;;10.78;70.84;104117.84;5045360;28;20507;-82
2021/12/17 05:26:02;;;;;;;0.85;0.85;;;;;;;10.77;71.06;104126.69;5043887;28;20049;-82
2021/12/17 05:28:28;;;;;;;0.10;0.10;;;;;;;10.76;71.17;104131.06;5050151;28;20051;-82
2021/12/17 05:30:55;;;;;;;0.90;0.90;;;;;;;10.77;70.93;104132.00;5046656;28;20472;-82
2021/12/17 05:33:23;;;;;;;0.20;0.20;;;;;;;10.75;71.06;104129.25;5050765;28;20741;-82
2021/12/17 05:35:50;;;;;;;0.10;0.10;;;;;;;10.76;71.09;104131.06;5049980;28;20121;-82
2021/12/17 05:38:18;;;;;;;0.20;0.20;;;;;;;10.79;70.93;104133.84;5050115;28;20054;-82
2021/12/17 05:40:45;;;;;;;0.10;0.10;;;;;;;10.79;70.96;104132.91;5055351;28;20033;-82
2021/12/17 05:43:16;;;;;;;0.10;0.10;;;;;;;10.81;70.65;104134.75;5051465;28;20037;-82
2021/12/17 05:45:49;;;;;;;0.10;0.10;;;;;;;10.80;70.97;104122.38;5049120;28;20029;-82
2021/12/17 05:48:18;;;;;;;0.10;0.10;;;;;;;10.82;70.87;104120.66;5037534;28;20116;-82
2021/12/17 05:50:46;;;;;;;0.28;0.28;;;;;;;10.83;71.01;104129.53;5043393;28;20029;-82
2021/12/17 05:53:13;;;;;;;0.10;0.10;;;;;;;10.84;71.11;104131.31;5037843;28;20040;-81
2021/12/17 05:55:39;;;;;;;0.10;0.10;;;;;;;10.84;70.79;104128.66;5045204;28;20109;-80
2021/12/17 05:58:06;;;;;;;0.10;0.10;;;;;;;10.83;70.91;104137.50;5036086;28;20065;-81
2021/12/17 06:00:35;;;;;;;3.20;1.15;;;;;;;10.81;70.89;104134.75;5043397;28;20044;-80
2021/12/17 06:03:02;;;;;;;1.48;1.38;;;;;;;10.83;70.98;104132.19;5041870;28;20036;-82
2021/12/17 06:05:29;;;;;;;0.10;0.10;;;;;;;10.82;70.86;104125.97;5048236;28;20030;-82
2021/12/17 06:07:56;;;;;;;0.17;0.17;;;;;;;10.84;70.78;104133.97;5032791;28;20034;-82
2021/12/17 06:10:22;;;;;;;0.20;0.20;;;;;;;10.85;71.03;104130.47;5044486;28;20049;-81
2021/12/17 06:12:49;;;;;;;0.65;0.65;;;;;;;10.86;70.76;104134.91;5041658;28;20400;-81
2021/12/17 06:15:19;;;;;;;0.10;0.10;;;;;;;10.89;71.04;104147.38;5039062;28;20033;-81
2021/12/17 06:17:46;;;;;;;0.15;0.15;;;;;;;10.90;71.15;104155.38;5036845;28;20062;-82
2021/12/17 06:20:14;;;;;;;0.20;0.20;;;;;;;10.89;70.80;104153.59;5039971;28;20034;-80
2021/12/17 06:22:41;;;;;;;0.10;0.10;;;;;;;10.89;70.91;104153.59;5046194;28;20113;-81
2021/12/17 06:25:10;;;;;;;1.75;1.52;;;;;;;10.89;71.09;104150.97;5035207;28;20044;-81
2021/12/17 06:27:36;;;;;;;0.50;0.50;;;;;;;10.90;70.99;104160.69;5029986;28;20485;-81
2021/12/17 06:30:06;;;;;;;0.10;0.10;;;;;;;10.91;70.81;104167.78;5024329;28;20151;-82
2021/12/17 06:32:34;;;;;;;0.10;0.10;;;;;;;10.92;71.14;104163.41;5026902;28;20052;-82
2021/12/17 06:35:00;;;;;;;0.30;0.30;;;;;;;10.94;71.11;104159.94;5041205;28;20110;-82
2021/12/17 06:37:26;;;;;;;0.40;0.40;;;;;;;10.95;71.28;104151.16;5040602;28;20042;-82
2021/12/17 06:39:52;;;;;;;0.10;0.10;;;;;;;10.95;70.90;104147.56;5053669;28;20031;-83
2021/12/17 06:42:19;;;;;;;0.10;0.10;;;;;;;10.95;70.80;104153.81;5039717;28;20051;-82
2021/12/17 06:44:47;;;;;;;0.10;0.10;;;;;;;10.96;70.74;104152.91;5035052;28;20042;-83
2021/12/17 06:47:45;;;;;;;0.50;0.50;;;;;;;10.97;70.96;104157.38;5033946;28;20514;-82
2021/12/17 07:01:17;;;;;;;0.10;0.10;;;;;;;10.98;70.54;104159.19;5061024;28;20053;-81
2021/12/17 07:06:55;;;;;;;0.10;0.10;;;;;;;10.98;70.87;104159.19;5058147;28;20151;-80
2021/12/17 07:09:54;;;;;;;0.10;0.10;;;;;;;10.97;70.78;104168.00;5066375;28;20029;-81
2021/12/17 07:17:38;;;;;;;0.10;0.10;;;;;;;10.97;70.68;104168.00;5084962;28;20032;-81
2021/12/17 07:23:07;;;;;;;0.20;0.20;;;;;;;10.97;70.61;104165.34;5074342;28;20086;-82
2021/12/17 07:34:00;;;;;;;0.10;0.10;;;;;;;10.93;70.51;104171.41;5068476;28;20115;-80
2021/12/17 07:36:36;;;;;;;1.25;0.40;;;;;;;10.95;70.61;104175.03;5063485;28;20087;-81
2021/12/17 07:39:05;;;;;;;0.10;0.10;;;;;;;10.96;70.65;104176.81;5062099;28;20378;-80
2021/12/17 07:41:32;;;;;;;0.10;0.10;;;;;;;10.95;70.34;104183.00;5057493;28;20025;-81
2021/12/17 07:44:00;;;;;;;0.10;0.10;;;;;;;10.96;70.33;104181.22;5058543;28;20043;-81
2021/12/17 07:46:27;;;;;;;0.40;0.40;;;;;;;10.96;70.64;104176.81;5056862;28;20537;-81
2021/12/17 07:48:53;;;;;;;0.10;0.10;;;;;;;10.97;70.59;104181.25;5058796;28;20025;-81
2021/12/17 07:51:21;;;;;;;0.40;0.40;;;;;;;10.98;70.67;104185.72;5060833;28;20036;-81
2021/12/17 07:53:49;;;;;;;0.10;0.10;;;;;;;10.99;70.76;104191.91;5059037;28;20062;-81
2021/12/17 07:56:24;;;;;;;0.10;0.10;;;;;;;11.00;70.85;104192.00;5057954;28;20025;-81
2021/12/17 07:58:54;;;;;;;0.20;0.20;;;;;;;11.00;70.72;104184.03;5057552;28;20096;-80
2021/12/17 08:01:20;;;;;;;0.10;0.10;;;;;;;11.00;70.48;104192.00;5053954;28;20037;-81
2021/12/17 08:03:48;;;;;;;0.10;0.10;;;;;;;11.00;70.44;104199.94;5055313;28;20029;-81
2021/12/17 08:06:14;;;;;;;0.20;0.20;;;;;;;11.03;70.25;104206.19;5058857;28;20433;-82
2021/12/17 08:08:40;;;;;;;0.10;0.10;;;;;;;11.04;70.58;104208.00;5053382;28;20028;-81
2021/12/17 08:11:11;;;;;;;0.10;0.10;;;;;;;11.07;70.34;104198.38;5062748;28;20029;-81
2021/12/17 08:13:40;;;;;;;0.20;0.20;;;;;;;11.06;70.76;104198.34;5055238;28;20124;-81
2021/12/17 08:32:47;;;;;;;0.30;0.30;;;;;;;11.14;70.23;104187.13;5077297;28;20471;-81
2021/12/17 08:35:13;;;;;;;0.10;0.10;;;;;;;11.18;70.60;104193.41;5051959;28;20075;-82
2021/12/17 08:37:40;;;;;;;0.10;0.10;;;;;;;11.19;70.31;104189.91;5046180;28;20058;-81
2021/12/17 08:40:08;;;;;;;0.10;0.10;;;;;;;11.23;70.29;104180.31;5049217;28;20026;-81
2021/12/17 08:42:35;;;;;;;1.65;1.55;;;;;;;11.25;70.35;104189.19;5045101;28;20068;-81
2021/12/17 08:45:03;;;;;;;1.13;1.13;;;;;;;11.26;70.65;104189.22;5048447;28;20025;-81
2021/12/17 08:47:31;;;;;;;0.50;0.50;;;;;;;11.26;70.85;104191.00;5048726;28;20116;-81
2021/12/17 08:50:05;;;;;;;0.20;0.20;;;;;;;11.27;70.70;104183.06;5036427;28;20028;-80
2021/12/17 08:52:42;;;;;;;0.10;0.10;;;;;;;11.32;70.76;104186.75;5049517;28;20052;-82
2021/12/17 08:55:11;;;;;;;0.15;0.15;;;;;;;11.31;70.63;104190.31;5049153;28;21103;-82
2021/12/17 08:57:38;;;;;;;0.10;0.10;;;;;;;11.33;70.33;104191.22;5040337;28;20528;-81
2021/12/17 09:00:08;;;;;;;0.10;0.10;;;;;;;11.36;70.31;104197.50;5047967;28;20033;-81
2021/12/17 09:02:36;;;;;;;0.10;0.10;;;;;;;11.36;70.18;104192.19;5044401;28;20391;-80
2021/12/17 09:05:05;;;;;;;0.10;0.10;;;;;;;11.41;70.48;104196.75;5050461;28;20025;-82
2021/12/17 09:07:31;;;;;;;0.10;0.10;;;;;;;11.45;70.62;104197.75;5045635;28;20024;-80
2021/12/17 09:09:58;;;;;;;0.10;0.10;;;;;;;11.47;70.66;104201.38;5048749;28;20037;-81
2021/12/17 09:12:25;;;;;;;0.10;0.10;;;;;;;11.51;70.99;104197.94;5048578;28;20076;-81
2021/12/17 09:14:51;;;;;;;0.20;0.20;;;;;;;11.53;70.46;104196.25;5049982;28;20025;-81
2021/12/17 09:17:19;;;;;;;0.10;0.10;;;;;;;11.55;70.56;104196.28;5042880;28;20033;-81
2021/12/17 09:19:45;;;;;;;0.20;0.20;;;;;;;11.54;70.87;104198.06;5046461;28;20048;-81
2021/12/17 09:22:11;;;;;;;0.30;0.30;;;;;;;11.53;70.37;104201.56;5045009;28;20033;-81
2021/12/17 09:24:37;;;;;;;0.63;0.63;;;;;;;11.58;70.52;104201.72;5049553;28;20043;-81
2021/12/17 09:27:03;;;;;;;0.20;0.20;;;;;;;11.61;70.68;104202.69;5048272;28;20370;-81
2021/12/17 09:29:30;;;;;;;0.20;0.20;;;;;;;11.63;70.20;104205.41;5049096;28;20112;-81
2021/12/17 09:31:57;;;;;;;0.10;0.10;;;;;;;11.64;70.18;104205.44;5048431;28;20099;-81
2021/12/17 09:34:23;;;;;;;0.10;0.10;;;;;;;11.68;70.80;104205.53;5048925;28;20120;-80
2021/12/17 09:36:50;;;;;;;0.10;0.10;;;;;;;11.67;70.52;104209.03;5047519;28;20033;-81
2021/12/17 09:39:18;;;;;;;0.10;0.10;;;;;;;11.69;70.38;104205.56;5047620;28;20495;-81
2021/12/17 09:41:50;;;;;;;0.20;0.20;;;;;;;11.72;70.51;104212.72;5048046;28;20034;-81
2021/12/17 09:44:18;;;;;;;0.10;0.10;;;;;;;11.74;70.46;104211.00;5033333;28;20052;-83
2021/12/17 09:46:46;;;;;;;0.17;0.17;;;;;;;11.76;70.66;104225.25;5035537;28;20373;-80
2021/12/17 09:49:14;;;;;;;0.10;0.10;;;;;;;11.76;70.24;104222.59;5036473;28;20044;-81
2021/12/17 09:51:41;;;;;;;0.20;0.20;;;;;;;11.78;70.44;104218.22;5033354;28;20045;-80
2021/12/17 09:54:10;;;;;;;0.10;0.10;;;;;;;11.84;70.46;104215.75;5035973;28;20037;-80
2021/12/17 09:56:36;;;;;;;0.10;0.10;;;;;;;11.82;69.85;104218.38;5034280;28;20025;-81
2021/12/17 09:59:03;;;;;;;0.52;0.47;;;;;;;11.85;70.70;104224.59;5034814;28;20029;-81
2021/12/17 10:01:30;;;;;;;0.13;0.13;;;;;;;11.86;70.36;104221.97;5034450;28;20036;-81
2021/12/17 10:04:18;;;;;;;0.13;0.13;;;;;;;12.00;70.30;104230.41;5034257;28;20094;-80
2021/12/17 10:06:45;;;;;;;0.45;0.45;;;;;;;11.96;70.58;104224.09;5035228;28;20061;-81
2021/12/17 10:09:12;;;;;;;1.00;0.65;;;;;;;11.99;70.40;104231.25;5028093;28;20029;-81
2021/12/17 10:11:38;;;;;;;0.13;0.13;;;;;;;12.00;70.30;104229.50;5023610;28;20037;-81
2021/12/17 10:17:17;;;;;;;0.20;0.20;;;;;;;12.11;69.95;104226.28;5063212;28;20463;-81
2021/12/17 10:22:25;;;;;;;0.30;0.30;;;;;;;12.14;69.75;104241.44;5049536;27;1264205;-80
2021/12/17 10:25:10;;;;;;;0.30;0.30;;;;;;;12.23;70.51;104241.66;5058732;28;20120;-80
2021/12/17 10:27:38;;;;;;;0.10;0.10;;;;;;;12.16;69.97;104241.47;5050637;28;20083;-80
2021/12/17 10:30:19;;;;;;;0.30;0.30;;;;;;;12.19;69.65;104245.13;5050012;28;20036;-80
2021/12/17 10:32:48;;;;;;;0.10;0.10;;;;;;;12.14;69.06;104244.97;5050683;28;20093;-80
2021/12/17 10:35:17;;;;;;;0.10;0.10;;;;;;;12.16;70.59;104247.66;5050426;28;20028;-81
2021/12/17 10:37:55;;;;;;;1.30;1.20;;;;;;;12.11;69.00;104246.63;5050723;28;20442;-81
2021/12/17 10:43:16;;;;;;;0.20;0.20;;;;;;;12.02;68.38;104243.75;5082244;28;20473;-81
2021/12/17 10:45:59;;;;;;;0.10;0.10;;;;;;;11.99;69.41;104241.91;5052258;28;20496;-80
2021/12/17 10:48:31;;;;;;;0.20;0.20;;;;;;;11.94;68.49;104247.03;5038639;28;20067;-80
2021/12/17 10:53:53;;;;;;;0.10;0.10;;;;;;;12.00;69.29;104250.75;5099182;27;20410;-80
2021/12/17 10:56:24;;;;;;;0.10;0.10;;;;;;;11.96;69.02;104256.00;5089303;28;20029;-81
2021/12/17 10:59:01;;;;;;;0.10;0.10;;;;;;;11.94;68.93;104249.69;5086539;28;20024;-81
2021/12/17 11:01:32;;;;;;;0.13;0.13;;;;;;;11.90;68.27;104252.22;5086994;28;20067;-81
2021/12/17 11:04:20;;;;;;;0.10;0.10;;;;;;;11.97;68.27;104252.50;5088572;28;20020;-80
2021/12/17 11:09:54;;;;;;;0.10;0.10;;;;;;;11.97;68.31;104239.19;5075790;27;20914;-80
2021/12/17 11:17:56;;;;;;;0.10;0.10;;;;;;;11.96;68.98;104244.44;5072515;27;20484;-80
2021/12/17 11:20:27;;;;;;;0.10;0.10;;;;;;;11.96;68.53;104240.06;5059708;28;20115;-80
2021/12/17 11:22:56;;;;;;;0.10;0.10;;;;;;;11.96;68.45;104245.38;5061610;28;20031;-79
2021/12/17 11:25:24;;;;;;;0.10;0.10;;;;;;;11.94;68.44;104247.03;5065738;28;20025;-80
2021/12/17 11:27:52;;;;;;;0.20;0.20;;;;;;;11.95;68.84;104243.53;5062065;28;20422;-80
2021/12/17 11:30:22;;;;;;;0.10;0.10;;;;;;;11.97;68.41;104246.25;5062248;28;20036;-80
2021/12/17 11:32:49;;;;;;;0.10;0.10;;;;;;;11.95;68.90;104242.59;5067788;28;20052;-80
2021/12/17 11:35:19;;;;;;;0.10;0.10;;;;;;;11.91;68.21;104246.03;5068177;28;20478;-80
2021/12/17 11:37:47;;;;;;;0.10;0.10;;;;;;;11.85;67.94;104225.53;5065109;28;20035;-81
2021/12/17 11:40:33;;;;;;;0.50;0.50;;;;;;;11.94;68.69;104231.09;5060138;28;20029;-80
2021/12/17 11:43:48;;;;;;;0.10;0.10;;;;;;;11.92;68.01;104227.47;5064582;28;20029;-80
2021/12/17 11:46:14;;;;;;;0.30;0.30;;;;;;;11.88;68.30;104222.94;5062114;28;20434;-81
2021/12/17 11:48:50;;;;;;;0.10;0.10;;;;;;;11.93;69.21;104216.00;5050866;28;20383;-81
2021/12/17 11:51:20;;;;;;;0.10;0.10;;;;;;;11.87;68.44;104213.16;5058647;28;20065;-80
2021/12/17 11:56:41;;;;;;;0.55;0.55;;;;;;;11.85;68.68;104214.91;5095174;27;21877;-82
2021/12/17 11:59:11;;;;;;;0.10;0.10;;;;;;;11.84;68.46;104218.41;5087395;28;20099;-81
2021/12/17 12:02:16;;;;;;;0.20;0.20;;;;;;;11.94;68.50;104220.47;5090077;28;20020;-81
2021/12/17 12:10:19;;;;;;;0.00;0.00;;;;;;;11.92;68.25;104232.78;5081654;27;20396;-81
2021/12/17 12:18:11;;;;;;;0.55;0.55;;;;;;;11.89;67.83;104232.72;5062766;28;20791;-81
2021/12/17 12:20:57;;;;;;;0.08;0.08;;;;;;;11.94;67.73;104224.88;5068748;28;20027;-87
2021/12/17 12:26:17;;;;;;;0.20;0.20;;;;;;;11.82;68.03;104241.34;5080382;27;20982;-81
2021/12/17 12:34:12;;;;;;;0.10;0.10;;;;;;;11.84;69.30;104239.66;5072365;27;20896;-81
2021/12/17 12:42:28;;;;;;;0.52;0.52;;;;;;;11.69;68.28;104228.56;5089701;27;1424630;-81
2021/12/17 12:50:23;;;;;;;0.10;0.10;;;;;;;11.67;68.13;104224.97;5080270;28;20470;-82
2021/12/17 12:52:55;;;;;;;0.15;0.15;;;;;;;11.69;68.22;104217.94;5070221;28;20434;-82
2021/12/17 12:58:11;;;;;;;0.10;0.10;;;;;;;11.73;68.44;104209.22;5080121;27;20429;-81
2021/12/17 13:03:31;;;;;;;0.45;0.45;;;;;;;11.79;69.02;104202.31;5075473;27;20402;-81
2021/12/17 13:06:00;;;;;;;0.10;0.10;;;;;;;11.72;68.29;104215.38;5046449;28;20384;-81
2021/12/17 13:08:30;;;;;;;1.45;1.35;;;;;;;11.71;68.59;104213.59;5048205;28;20032;-81
2021/12/17 13:10:59;;;;;;;0.10;0.10;;;;;;;11.73;69.23;104219.84;5039545;28;20026;-81
2021/12/17 13:13:36;;;;;;;0.10;0.10;;;;;;;11.70;68.32;104215.34;5045326;28;20053;-81
2021/12/17 13:16:13;;;;;;;0.08;0.08;;;;;;;11.73;68.30;104211.88;5048292;28;20497;-81
2021/12/17 13:21:35;;;;;;;0.17;0.17;;;;;;;11.71;68.24;104205.63;5076717;27;20424;-82
2021/12/17 13:24:11;;;;;;;0.10;0.10;;;;;;;11.72;68.10;104210.06;5061132;28;20032;-81
2021/12/17 13:26:40;;;;;;;0.10;0.10;;;;;;;11.75;68.17;104192.47;5050629;28;20060;-80
2021/12/17 13:29:14;;;;;;;0.10;0.10;;;;;;;11.78;68.56;104194.31;5050382;28;20036;-82
2021/12/17 13:31:48;;;;;;;0.10;0.10;;;;;;;11.81;68.24;104194.38;5046155;28;20156;-80
2021/12/17 13:34:26;;;;;;;1.55;1.08;;;;;;;11.73;67.75;104198.59;5030940;28;20052;-81
2021/12/17 13:37:03;;;;;;;0.88;0.88;;;;;;;11.72;67.30;104205.66;5049098;28;20029;-82
2021/12/17 13:39:33;;;;;;;0.28;0.28;;;;;;;11.64;67.58;104200.13;5050859;28;20033;-82
2021/12/17 13:42:00;;;;;;;0.22;0.22;;;;;;;11.63;67.59;104208.94;5049565;28;20026;-81
2021/12/17 13:50:09;;;;;;;0.10;0.10;;;;;;;11.71;68.03;104200.31;5059824;28;20402;-80
2021/12/17 13:52:46;;;;;;;0.28;0.28;;;;;;;11.69;68.51;104202.00;5035652;28;20112;-80
2021/12/17 13:55:15;;;;;;;0.55;0.55;;;;;;;11.67;68.66;104211.69;5022971;28;20032;-81
2021/12/17 13:57:42;;;;;;;0.10;0.10;;;;;;;11.63;68.09;104203.63;5029992;28;20362;-81
2021/12/17 14:00:15;;;;;;;0.25;0.25;;;;;;;11.61;68.14;104200.03;5030419;28;20097;-81
2021/12/17 14:02:43;;;;;;;0.10;0.10;;;;;;;11.60;68.13;104208.88;5027165;28;20034;-80
2021/12/17 14:05:15;;;;;;;0.20;0.20;;;;;;;11.60;68.17;104208.88;5030294;28;20029;-81
2021/12/17 14:07:47;;;;;;;0.20;0.20;;;;;;;11.58;68.41;104210.56;5029782;28;20546;-81
2021/12/17 14:10:21;;;;;;;0.10;0.10;;;;;;;11.58;67.95;104207.91;5030427;28;20084;-80
2021/12/17 14:12:48;;;;;;;0.20;0.20;;;;;;;11.54;68.49;104203.38;5028174;28;20033;-80
2021/12/17 14:15:26;;;;;;;0.10;0.10;;;;;;;11.55;68.11;104204.25;5027622;28;20041;-80
2021/12/17 14:17:59;;;;;;;0.17;0.17;;;;;;;11.50;68.14;104206.75;5027718;28;20068;-80
2021/12/17 14:20:28;;;;;;;0.40;0.40;;;;;;;11.46;68.92;104208.47;5023270;28;20393;-80
2021/12/17 14:22:59;;;;;;;1.98;0.73;;;;;;;11.42;68.03;104206.53;5020766;28;20058;-80
2021/12/17 14:25:39;;;;;;;0.40;0.40;;;;;;;11.46;67.60;104204.88;5028095;28;20065;-80
2021/12/17 14:31:06;;;;;;;0.10;0.10;;;;;;;11.48;67.99;104204.06;5072069;27;20829;-82
2021/12/17 14:36:28;;;;;;;0.10;0.10;;;;;;;11.51;67.89;104197.94;5111349;27;20399;-81
2021/12/17 14:39:17;;;;;;;0.10;0.10;;;;;;;11.52;68.16;104194.44;5111245;28;20097;-81
2021/12/17 14:41:51;;;;;;;0.80;0.80;;;;;;;11.51;68.79;104195.28;5111726;28;20385;-80
2021/12/17 14:47:33;;;;;;;0.10;0.10;;;;;;;11.54;68.05;104197.13;5091349;27;20404;-81
2021/12/17 15:00:03;;;;;;;0.10;0.10;;;;;;;11.58;67.68;104189.31;5111548;28;20079;-80
2021/12/17 15:03:50;;;;;;;0.10;0.10;;;;;;;11.63;67.82;104189.47;5088782;28;20405;-81
2021/12/17 15:06:17;;;;;;;0.10;0.10;;;;;;;11.63;68.08;104177.06;5086891;28;20035;-82
2021/12/17 15:08:44;;;;;;;0.10;0.10;;;;;;;11.65;67.82;104182.41;5071084;28;20549;-82
2021/12/17 15:11:32;;;;;;;0.15;0.15;;;;;;;11.68;68.98;104184.28;5071585;28;20028;-85
2021/12/17 15:13:58;;;;;;;0.10;0.10;;;;;;;11.69;68.50;104180.75;5071110;28;20045;-84
2021/12/17 15:16:24;;;;;;;0.10;0.10;;;;;;;11.74;68.99;104188.00;5071176;28;20032;-85
2021/12/17 15:18:50;;;;;;;0.10;0.10;;;;;;;11.78;69.13;104187.22;5071028;28;20028;-86
2021/12/17 15:21:17;;;;;;;0.10;0.10;;;;;;;11.80;69.01;104189.94;5070941;28;20060;-86
2021/12/17 15:23:43;;;;;;;0.10;0.10;;;;;;;11.82;69.24;104183.84;5071126;28;20079;-85
2021/12/17 15:26:09;;;;;;;0.10;0.10;;;;;;;11.83;68.66;104190.03;5071542;28;20033;-86
2021/12/17 15:28:35;;;;;;;0.10;0.10;;;;;;;11.80;68.44;104181.97;5071444;28;20112;-85
2021/12/17 15:31:06;;;;;;;0.28;0.28;;;;;;;11.81;68.85;104192.66;5071544;28;20357;-85
2021/12/17 15:33:34;;;;;;;0.10;0.10;;;;;;;11.84;69.14;104189.19;5071665;28;20104;-85
2021/12/17 15:36:00;;;;;;;0.10;0.10;;;;;;;11.83;68.61;104187.38;5071334;28;20025;-85
2021/12/17 15:38:31;;;;;;;0.10;0.10;;;;;;;11.86;68.96;104187.44;5070585;28;20443;-85
2021/12/17 15:40:57;;;;;;;0.10;0.10;;;;;;;11.81;68.94;104186.41;5070738;28;20090;-81